Wentworth, South Dakota
Current Conditions -  °F | °C
As of 11:10 AM on Friday 19 Dec 2014 (Local Time) from KMDS Reporting Station
Haze Haze  
Wind Chill: 13°   Ceiling: 400
Heat Index: 27°   Visibility: 5mi
Dew Point: 27°   Wind: 18mph
Humidity: 100%   Direction: 190°S
Pressure: 30.1"   Gusts: NA
Location:  44°N, 96.96°W
Report Text: KMDS 191710Z AUTO 19016KT 5SM BR OVC004 M03/M03 A3010 RMK AO2
Loading
Personal Weather Stations






























Interactive Weather Map New forecast layout! Learn more

10-Day Weather Forecast

Advertisements
Track Severe Weather on mobile